Time;durP1;ratioP1;P1;durP2;ratioP2;P2;SDS_P1;SDS_P2;PMS_P1;PMS_P2;Temp;Humidity;BMP_temperature;BMP_pressure;BME280_temperature;BME280_humidity;BME280_pressure;Samples;Min_cycle;Max_cycle;Signal;HPM_P1;HPM_P2
2021/05/27 00:00:30;;;;;;;5.93;2.35;;;8.30;99.90;;;;;;2091882;28;20016;-59
2021/05/27 00:01:31;;;;;;;7.55;2.38;;;8.30;99.90;;;;;;2090622;28;20473;-59
2021/05/27 00:02:31;;;;;;;7.22;1.90;;;8.30;99.90;;;;;;2091215;28;20079;-59
2021/05/27 00:03:32;;;;;;;4.95;2.08;;;8.30;99.90;;;;;;2089246;28;20144;-59
2021/05/27 00:04:34;;;;;;;8.02;1.98;;;8.30;99.90;;;;;;2095678;28;20090;-59
2021/05/27 00:05:35;;;;;;;12.07;2.50;;;8.30;99.90;;;;;;2094873;28;20025;-59
2021/05/27 00:06:35;;;;;;;3.95;1.80;;;8.30;99.90;;;;;;2086804;28;20646;-59
2021/05/27 00:07:36;;;;;;;5.13;2.30;;;8.30;99.90;;;;;;2094888;28;20023;-59
2021/05/27 00:08:37;;;;;;;6.22;1.85;;;8.30;99.90;;;;;;2093046;28;20036;-59
2021/05/27 00:09:38;;;;;;;8.02;2.42;;;8.30;99.90;;;;;;2094927;28;20025;-59
2021/05/27 00:10:38;;;;;;;5.55;2.20;;;8.30;99.90;;;;;;2091433;28;20049;-59
2021/05/27 00:11:39;;;;;;;8.23;2.10;;;8.30;99.90;;;;;;2095582;28;20051;-59
2021/05/27 00:12:40;;;;;;;7.30;2.22;;;8.30;99.90;;;;;;2091080;28;20029;-59
2021/05/27 00:13:41;;;;;;;7.60;2.38;;;8.30;99.90;;;;;;2087175;28;20049;-59
2021/05/27 00:14:41;;;;;;;11.35;2.55;;;8.30;99.90;;;;;;2081150;28;20528;-60
2021/05/27 00:15:42;;;;;;;5.72;2.28;;;8.40;99.90;;;;;;2085068;28;20406;-59
2021/05/27 00:16:43;;;;;;;5.95;2.30;;;8.30;99.90;;;;;;2089605;28;20098;-59
2021/05/27 00:17:44;;;;;;;7.18;1.98;;;8.40;99.90;;;;;;2087752;28;20017;-59
2021/05/27 00:18:44;;;;;;;7.78;2.55;;;8.40;99.90;;;;;;2091963;28;20029;-59
2021/05/27 00:19:45;;;;;;;8.57;2.17;;;8.30;99.90;;;;;;2092717;28;20079;-59
2021/05/27 00:20:46;;;;;;;4.60;2.13;;;8.30;99.90;;;;;;2090107;28;20040;-59
2021/05/27 00:21:47;;;;;;;7.88;2.40;;;8.30;99.90;;;;;;2082607;28;20033;-59
2021/05/27 00:22:48;;;;;;;5.07;2.10;;;8.20;99.90;;;;;;2082911;28;20111;-59
2021/05/27 00:23:49;;;;;;;6.50;2.25;;;8.20;99.90;;;;;;2081703;28;20076;-59
2021/05/27 00:24:50;;;;;;;7.18;2.65;;;8.20;99.90;;;;;;2087028;28;20095;-59
2021/05/27 00:25:51;;;;;;;8.10;2.10;;;8.10;99.90;;;;;;2089735;28;20025;-59
2021/05/27 00:26:51;;;;;;;7.13;2.40;;;8.10;99.90;;;;;;2089162;28;20107;-59
2021/05/27 00:27:53;;;;;;;4.78;2.30;;;8.10;99.90;;;;;;2089371;28;20017;-59
2021/05/27 00:28:53;;;;;;;5.82;2.40;;;8.10;99.90;;;;;;2088658;28;20025;-59
2021/05/27 00:29:54;;;;;;;9.75;2.15;;;8.10;99.90;;;;;;2088872;28;20017;-59
2021/05/27 00:30:54;;;;;;;5.97;2.60;;;8.10;99.90;;;;;;2089430;28;20021;-59
2021/05/27 00:31:55;;;;;;;6.13;2.05;;;8.00;99.90;;;;;;2089888;28;20029;-59
2021/05/27 00:32:56;;;;;;;11.13;2.35;;;8.00;99.90;;;;;;2088582;28;20029;-59
2021/05/27 00:33:56;;;;;;;5.32;2.00;;;8.00;99.90;;;;;;2088747;28;20025;-59
2021/05/27 00:34:58;;;;;;;9.90;2.20;;;7.90;99.90;;;;;;2089079;28;20483;-59
2021/05/27 00:35:59;;;;;;;4.43;2.13;;;7.90;99.90;;;;;;2089246;28;20445;-59
2021/05/27 00:36:59;;;;;;;4.88;2.30;;;7.90;99.90;;;;;;2087487;28;20036;-59
2021/05/27 00:38:00;;;;;;;6.78;2.10;;;7.80;99.90;;;;;;2085183;28;20123;-59
2021/05/27 00:39:01;;;;;;;6.60;2.15;;;7.80;99.90;;;;;;2085042;28;20030;-59
2021/05/27 00:40:06;;;;;;;6.07;2.15;;;7.70;99.90;;;;;;2085396;28;20424;-59
2021/05/27 00:41:07;;;;;;;7.72;2.20;;;7.70;99.90;;;;;;2089181;28;20029;-59
2021/05/27 00:42:08;;;;;;;6.97;1.85;;;7.70;99.90;;;;;;2087622;28;20361;-59
2021/05/27 00:43:08;;;;;;;4.75;2.55;;;7.70;99.90;;;;;;2080562;28;20105;-59
2021/05/27 00:44:29;;;;;;;5.22;2.08;;;7.60;99.90;;;;;;2083446;28;20022;-59
2021/05/27 00:45:30;;;;;;;5.47;2.00;;;7.60;99.90;;;;;;2089011;28;20033;-59
2021/05/27 00:46:30;;;;;;;6.63;2.20;;;7.60;99.90;;;;;;2088863;28;20021;-59
2021/05/27 00:47:31;;;;;;;5.45;2.40;;;7.60;99.90;;;;;;2089326;28;20103;-59
2021/05/27 00:49:51;;;;;;;8.00;2.65;;;7.60;99.90;;;;;;2089254;28;20026;-59
2021/05/27 00:50:51;;;;;;;6.28;2.30;;;7.70;99.90;;;;;;2089711;28;20484;-60
2021/05/27 00:51:52;;;;;;;5.28;2.25;;;7.70;99.90;;;;;;2082432;28;20623;-60
2021/05/27 00:52:55;;;;;;;8.20;2.90;;;7.70;99.90;;;;;;2087722;28;20594;-60
2021/05/27 00:53:56;;;;;;;7.80;2.58;;;7.70;99.90;;;;;;2082239;28;20673;-60
2021/05/27 00:54:59;;;;;;;7.43;2.50;;;7.60;99.90;;;;;;2082735;28;20033;-60
2021/05/27 00:56:00;;;;;;;6.30;2.38;;;7.60;99.90;;;;;;2088875;28;20033;-59
2021/05/27 00:57:07;;;;;;;8.30;2.13;;;7.60;99.90;;;;;;2089046;28;20022;-60
2021/05/27 00:58:07;;;;;;;8.57;2.40;;;7.60;99.90;;;;;;2081589;28;20032;-60
2021/05/27 00:59:09;;;;;;;9.60;2.50;;;7.50;99.90;;;;;;2089156;28;20564;-60
2021/05/27 01:00:12;;;;;;;9.30;2.28;;;7.50;99.90;;;;;;2083983;28;20022;-60
2021/05/27 01:01:14;;;;;;;7.20;2.33;;;7.40;99.90;;;;;;2088997;28;20052;-60
2021/05/27 01:02:15;;;;;;;9.25;2.72;;;7.40;99.90;;;;;;2079241;28;20484;-60
2021/05/27 01:03:16;;;;;;;7.72;2.20;;;7.40;99.90;;;;;;2089038;28;20025;-60
2021/05/27 01:04:18;;;;;;;6.88;2.20;;;7.40;99.90;;;;;;2084955;28;20022;-60
2021/05/27 01:05:19;;;;;;;8.48;2.70;;;7.30;99.90;;;;;;2083421;28;20488;-60
2021/05/27 01:06:20;;;;;;;6.57;2.53;;;7.30;99.90;;;;;;2089310;28;20024;-61
2021/05/27 01:07:21;;;;;;;4.13;2.10;;;7.30;99.90;;;;;;2089572;28;20019;-60
2021/05/27 01:08:22;;;;;;;7.82;2.30;;;7.20;99.90;;;;;;2089683;28;20017;-60
2021/05/27 01:09:22;;;;;;;10.45;2.40;;;7.20;99.90;;;;;;2080755;28;20060;-60
2021/05/27 01:10:23;;;;;;;8.65;2.38;;;7.20;99.90;;;;;;2083756;28;20516;-60
2021/05/27 01:11:25;;;;;;;7.45;2.33;;;7.20;99.90;;;;;;2088731;28;20071;-60
2021/05/27 01:12:26;;;;;;;;;;;7.20;99.90;;;;;;2086422;28;20016;-60
2021/05/27 01:13:27;;;;;;;7.55;2.35;;;7.20;99.90;;;;;;2089035;28;19904;-61
2021/05/27 01:15:48;;;;;;;5.13;2.10;;;7.20;99.90;;;;;;2083508;28;20123;-60
2021/05/27 01:16:49;;;;;;;5.30;2.85;;;7.20;99.90;;;;;;2081417;28;20525;-60
2021/05/27 01:17:49;;;;;;;7.78;2.95;;;7.20;99.90;;;;;;2087934;28;20017;-60
2021/05/27 01:18:50;;;;;;;7.00;2.72;;;7.20;99.90;;;;;;2091651;28;20020;-60
2021/05/27 01:19:52;;;;;;;6.28;2.30;;;7.20;99.90;;;;;;2090794;28;20072;-60
2021/05/27 01:20:55;;;;;;;6.82;2.20;;;7.20;99.90;;;;;;2088057;28;20032;-60
2021/05/27 01:21:56;;;;;;;8.85;2.67;;;7.20;99.90;;;;;;2088572;28;20033;-61
2021/05/27 01:22:56;;;;;;;7.10;2.78;;;7.10;99.90;;;;;;2092162;28;20749;-60
2021/05/27 01:23:57;;;;;;;7.78;2.92;;;7.10;99.90;;;;;;2088862;28;20047;-60
2021/05/27 01:24:58;;;;;;;5.80;2.80;;;7.10;99.90;;;;;;2088136;28;20128;-60
2021/05/27 01:26:00;;;;;;;6.38;2.90;;;7.10;99.90;;;;;;2088561;28;20044;-60
2021/05/27 01:27:01;;;;;;;6.18;2.72;;;7.10;99.90;;;;;;2078913;28;20018;-60
2021/05/27 01:28:03;;;;;;;5.68;2.80;;;7.10;99.90;;;;;;2088677;28;20714;-60
2021/05/27 01:29:03;;;;;;;6.63;2.80;;;7.00;99.90;;;;;;2081190;28;20079;-59
2021/05/27 01:30:06;;;;;;;7.20;2.80;;;7.00;99.90;;;;;;2087585;28;20657;-60
2021/05/27 01:31:09;;;;;;;7.80;2.47;;;7.00;99.90;;;;;;2089420;28;20385;-59
2021/05/27 01:32:10;;;;;;;4.68;2.55;;;7.00;99.90;;;;;;2089391;28;20017;-59
2021/05/27 01:33:12;;;;;;;8.00;3.30;;;7.00;99.90;;;;;;2089261;28;20100;-59
2021/05/27 01:34:12;;;;;;;;;;;7.00;99.90;;;;;;2089930;28;20365;-59
2021/05/27 01:35:22;;;;;;;9.70;2.85;;;7.00;99.90;;;;;;2086536;28;19963;-59
2021/05/27 01:36:22;;;;;;;12.65;3.90;;;7.00;99.90;;;;;;2085414;28;20076;-59
2021/05/27 01:37:23;;;;;;;9.50;3.42;;;7.00;99.90;;;;;;2085401;28;20465;-59
2021/05/27 01:38:25;;;;;;;8.35;3.85;;;7.00;99.90;;;;;;2086071;28;20029;-59
2021/05/27 01:39:26;;;;;;;6.28;3.45;;;7.00;99.90;;;;;;2089561;28;20021;-59
2021/05/27 01:40:27;;;;;;;9.02;3.53;;;7.00;99.90;;;;;;2089359;28;20104;-59
2021/05/27 01:41:27;;;;;;;12.68;3.40;;;7.00;99.90;;;;;;2089083;28;20021;-59
2021/05/27 01:42:28;;;;;;;6.82;3.20;;;7.00;99.90;;;;;;2089338;28;20444;-59
2021/05/27 01:43:29;;;;;;;12.48;3.53;;;7.00;99.90;;;;;;2089169;28;20017;-59
2021/05/27 01:44:30;;;;;;;8.88;3.58;;;6.90;99.90;;;;;;2089545;28;20009;-59
2021/05/27 01:45:31;;;;;;;10.50;3.50;;;6.90;99.90;;;;;;2086998;28;20071;-59
2021/05/27 01:46:32;;;;;;;6.50;3.60;;;6.90;99.90;;;;;;2088709;28;20013;-59
2021/05/27 01:47:32;;;;;;;6.43;3.45;;;6.80;99.90;;;;;;2081980;28;20855;-59
2021/05/27 01:48:33;;;;;;;7.97;3.58;;;6.80;99.90;;;;;;2085722;28;20028;-59
2021/05/27 01:49:34;;;;;;;10.68;3.55;;;6.80;99.90;;;;;;2088605;28;20539;-59
2021/05/27 01:50:38;;;;;;;7.45;3.15;;;6.70;99.90;;;;;;2087183;28;20403;-59
2021/05/27 01:51:39;;;;;;;5.43;3.33;;;6.70;99.90;;;;;;2083078;28;20109;-59
2021/05/27 01:52:40;;;;;;;10.10;3.90;;;6.80;99.90;;;;;;2088775;28;20029;-59
2021/05/27 01:53:40;;;;;;;9.77;4.07;;;6.80;99.90;;;;;;2088553;28;20539;-59
2021/05/27 01:54:41;;;;;;;6.97;3.88;;;6.80;99.90;;;;;;2088793;28;20021;-59
2021/05/27 01:55:48;;;;;;;6.15;3.78;;;6.80;99.90;;;;;;2088243;28;20017;-59
2021/05/27 01:56:48;;;;;;;10.40;4.55;;;6.80;99.90;;;;;;2088536;28;20423;-59
2021/05/27 01:57:49;;;;;;;10.13;4.72;;;6.80;99.90;;;;;;2080293;28;20021;-59
2021/05/27 01:58:50;;;;;;;11.45;4.80;;;6.80;99.90;;;;;;2088471;28;20392;-59
2021/05/27 01:59:51;;;;;;;9.65;4.38;;;6.80;99.90;;;;;;2087068;28;20023;-59
2021/05/27 02:00:52;;;;;;;7.97;4.30;;;6.70;99.90;;;;;;2081278;28;20025;-59
2021/05/27 02:01:54;;;;;;;14.25;4.80;;;6.80;99.90;;;;;;2082695;28;20045;-59
2021/05/27 02:02:55;;;;;;;12.85;4.57;;;6.70;99.90;;;;;;2081190;28;20033;-59
2021/05/27 02:03:56;;;;;;;8.48;4.95;;;6.70;99.90;;;;;;2088432;28;20017;-59
2021/05/27 02:04:56;;;;;;;8.13;4.22;;;6.70;99.90;;;;;;2080380;28;20029;-60
2021/05/27 02:05:57;;;;;;;12.63;4.85;;;6.60;99.90;;;;;;2088540;28;20032;-59
2021/05/27 02:07:07;;;;;;;9.93;4.70;;;6.60;99.90;;;;;;2086824;28;20679;-59
2021/05/27 02:08:10;;;;;;;12.38;4.60;;;6.60;99.90;;;;;;2087548;28;20020;-59
2021/05/27 02:09:10;;;;;;;13.00;4.68;;;6.60;99.90;;;;;;2081955;28;20409;-59
2021/05/27 02:10:11;;;;;;;10.50;4.50;;;6.60;99.90;;;;;;2081506;28;20021;-59
2021/05/27 02:11:12;;;;;;;15.52;5.63;;;6.60;99.90;;;;;;2089203;28;20017;-60
2021/05/27 02:12:13;;;;;;;9.85;5.60;;;6.60;99.90;;;;;;2089308;28;20071;-59
2021/05/27 02:13:14;;;;;;;14.32;5.93;;;6.70;99.90;;;;;;2086886;28;20118;-59
2021/05/27 02:14:19;;;;;;;13.63;6.03;;;6.70;99.90;;;;;;2088230;28;20122;-60
2021/05/27 02:15:20;;;;;;;11.50;5.90;;;6.70;99.90;;;;;;2082277;28;20047;-59
2021/05/27 02:16:20;;;;;;;15.40;6.60;;;6.70;99.90;;;;;;2088635;28;20017;-59
2021/05/27 02:17:21;;;;;;;12.80;5.18;;;6.70;99.90;;;;;;2088994;28;20021;-59
2021/05/27 02:18:22;;;;;;;14.35;5.95;;;6.70;99.90;;;;;;2087477;28;20025;-59
2021/05/27 02:19:22;;;;;;;15.68;5.90;;;6.70;99.90;;;;;;2093098;28;20029;-59
2021/05/27 02:20:23;;;;;;;13.55;5.88;;;6.60;99.90;;;;;;2088580;28;20025;-59
2021/05/27 02:21:24;;;;;;;13.98;5.82;;;6.60;99.90;;;;;;2086640;28;20507;-59
2021/05/27 02:22:25;;;;;;;13.13;6.90;;;6.60;99.90;;;;;;2086195;28;20021;-59
2021/05/27 02:23:26;;;;;;;17.42;6.40;;;6.60;99.90;;;;;;2087023;28;20151;-60
2021/05/27 02:24:27;;;;;;;12.02;6.38;;;6.60;99.90;;;;;;2082123;28;20018;-60
2021/05/27 02:25:27;;;;;;;14.27;7.15;;;6.60;99.90;;;;;;2088513;28;20538;-59
2021/05/27 02:26:29;;;;;;;16.13;7.07;;;6.60;99.90;;;;;;2088286;28;20017;-59
2021/05/27 02:27:29;;;;;;;22.27;9.38;;;6.60;99.90;;;;;;2088473;28;20045;-59
2021/05/27 02:28:30;;;;;;;17.20;8.00;;;6.70;99.90;;;;;;2088727;28;20370;-60
2021/05/27 02:29:31;;;;;;;18.17;8.05;;;6.60;99.90;;;;;;2085580;28;20064;-59
2021/05/27 02:30:31;;;;;;;21.15;8.57;;;6.60;99.90;;;;;;2080658;28;20079;-59
2021/05/27 02:31:32;;;;;;;21.27;8.15;;;6.60;99.90;;;;;;2082041;28;20053;-59
2021/05/27 02:32:33;;;;;;;18.40;8.00;;;6.60;99.90;;;;;;2080389;28;20497;-59
2021/05/27 02:33:34;;;;;;;14.45;7.70;;;6.70;99.90;;;;;;2085083;28;20108;-60
2021/05/27 02:34:34;;;;;;;23.80;9.05;;;6.70;99.90;;;;;;2088486;28;20040;-60
2021/05/27 02:35:35;;;;;;;18.05;8.57;;;6.70;99.90;;;;;;2087910;28;20162;-60
2021/05/27 02:36:36;;;;;;;16.45;8.10;;;6.70;99.90;;;;;;2084740;28;20036;-60
2021/05/27 02:37:37;;;;;;;15.48;7.75;;;6.70;99.90;;;;;;2085920;28;20052;-60
2021/05/27 02:38:38;;;;;;;20.13;7.97;;;6.70;99.90;;;;;;2081314;28;20021;-59
2021/05/27 02:39:39;;;;;;;16.15;7.88;;;6.70;99.90;;;;;;2081018;28;20026;-59
2021/05/27 02:40:39;;;;;;;18.35;8.10;;;6.70;99.90;;;;;;2088376;28;20018;-59
2021/05/27 02:41:40;;;;;;;15.13;7.80;;;6.70;99.90;;;;;;2088816;28;20017;-59
2021/05/27 02:42:41;;;;;;;17.83;7.72;;;6.70;99.90;;;;;;2088385;28;20017;-60
2021/05/27 02:43:42;;;;;;;15.75;7.55;;;6.80;99.90;;;;;;2087970;28;20098;-59
2021/05/27 02:44:42;;;;;;;16.52;7.85;;;6.80;99.90;;;;;;2083313;28;20035;-59
2021/05/27 02:45:43;;;;;;;16.05;8.38;;;6.80;99.90;;;;;;2080695;28;20026;-59
2021/05/27 02:46:44;;;;;;;18.83;8.60;;;6.90;99.90;;;;;;2083500;28;20042;-59
2021/05/27 02:47:45;;;;;;;17.27;8.25;;;6.90;99.90;;;;;;2080048;28;20335;-59
2021/05/27 02:48:45;;;;;;;20.55;8.32;;;6.90;99.90;;;;;;2088254;28;20477;-59
2021/05/27 02:49:46;;;;;;;14.50;7.25;;;6.90;99.90;;;;;;2088001;28;20044;-59
2021/05/27 02:50:47;;;;;;;21.42;8.35;;;7.00;99.90;;;;;;2086844;28;20021;-60
2021/05/27 02:51:48;;;;;;;19.45;8.43;;;7.00;99.90;;;;;;2079758;28;20040;-59
2021/05/27 02:52:48;;;;;;;13.30;7.72;;;7.10;99.90;;;;;;2080017;28;20065;-59
2021/05/27 02:53:49;;;;;;;18.92;8.32;;;7.10;99.90;;;;;;2077571;28;20091;-59
2021/05/27 02:54:50;;;;;;;22.55;8.38;;;7.10;99.90;;;;;;2079787;28;20037;-61
2021/05/27 02:55:51;;;;;;;17.17;7.15;;;7.20;99.90;;;;;;2071850;28;20029;-59
2021/05/27 02:56:52;;;;;;;17.77;7.57;;;7.20;99.90;;;;;;2082191;28;20021;-59
2021/05/27 02:57:53;;;;;;;17.85;7.57;;;7.20;99.90;;;;;;2081769;28;20026;-59
2021/05/27 02:58:54;;;;;;;19.35;8.00;;;7.20;99.90;;;;;;2086198;28;20031;-59
2021/05/27 02:59:54;;;;;;;19.27;8.48;;;7.20;99.90;;;;;;2088663;28;20025;-59
2021/05/27 03:00:55;;;;;;;16.85;8.18;;;7.20;99.90;;;;;;2083903;28;20029;-60
2021/05/27 03:01:56;;;;;;;15.60;7.43;;;7.20;99.90;;;;;;2083006;28;20047;-60
2021/05/27 03:02:56;;;;;;;15.02;7.13;;;7.10;99.90;;;;;;2088139;28;20016;-60
2021/05/27 03:03:57;;;;;;;12.93;7.43;;;7.10;99.90;;;;;;2082537;28;20400;-59
2021/05/27 03:04:58;;;;;;;15.75;7.30;;;7.10;99.90;;;;;;2079802;28;20036;-59
2021/05/27 03:05:59;;;;;;;19.17;7.50;;;7.00;99.90;;;;;;2088027;28;20092;-59
2021/05/27 03:06:59;;;;;;;15.63;8.20;;;7.00;99.90;;;;;;2083654;28;20018;-59
2021/05/27 03:08:00;;;;;;;17.98;7.57;;;7.10;99.90;;;;;;2080555;28;20583;-59
2021/05/27 03:09:01;;;;;;;14.30;7.18;;;7.10;99.90;;;;;;2081039;28;20032;-59
2021/05/27 03:10:02;;;;;;;14.98;7.35;;;7.10;99.90;;;;;;2079840;28;20033;-60
2021/05/27 03:11:04;;;;;;;14.50;7.28;;;7.10;99.90;;;;;;2083632;28;20486;-60
2021/05/27 03:12:05;;;;;;;17.15;7.72;;;7.00;99.90;;;;;;2082964;28;20033;-60
2021/05/27 03:13:07;;;;;;;17.08;7.05;;;7.00;99.90;;;;;;2084995;28;20057;-58
2021/05/27 03:14:07;;;;;;;;;;;6.90;99.90;;;;;;2085927;28;20021;-60
2021/05/27 03:15:08;;;;;;;14.70;7.30;;;6.90;99.90;;;;;;2088109;28;19904;-60
2021/05/27 03:16:09;;;;;;;18.70;6.57;;;6.90;99.90;;;;;;2088139;28;20024;-60
2021/05/27 03:17:10;;;;;;;15.52;6.20;;;6.80;99.90;;;;;;2088726;28;20025;-60
2021/05/27 03:18:11;;;;;;;15.38;7.20;;;6.80;99.90;;;;;;2088141;28;20021;-60
2021/05/27 03:19:11;;;;;;;14.35;7.43;;;6.80;99.90;;;;;;2093923;28;20137;-60
2021/05/27 03:20:13;;;;;;;17.45;7.57;;;6.80;99.90;;;;;;2083369;28;20470;-60
2021/05/27 03:21:13;;;;;;;19.67;8.65;;;6.80;99.90;;;;;;2084128;28;20125;-59
2021/05/27 03:22:14;;;;;;;17.95;7.82;;;6.80;99.90;;;;;;2084838;28;20128;-59
2021/05/27 03:23:15;;;;;;;17.88;8.13;;;6.70;99.90;;;;;;2086757;28;20067;-60
2021/05/27 03:24:16;;;;;;;13.85;7.32;;;6.70;99.90;;;;;;2088809;28;20025;-59
2021/05/27 03:25:17;;;;;;;20.05;7.20;;;6.70;99.90;;;;;;2086687;28;20460;-59
2021/05/27 03:26:17;;;;;;;20.60;8.95;;;6.70;99.90;;;;;;2087679;28;20103;-59
2021/05/27 03:27:18;;;;;;;18.10;7.28;;;6.70;99.90;;;;;;2080575;28;20022;-60
2021/05/27 03:28:19;;;;;;;16.57;7.93;;;6.70;99.90;;;;;;2086349;28;20031;-59
2021/05/27 03:29:20;;;;;;;21.08;8.35;;;6.70;99.90;;;;;;2088366;28;20266;-59
2021/05/27 03:30:21;;;;;;;22.05;8.15;;;6.70;99.90;;;;;;2083787;28;20026;-59
2021/05/27 03:31:22;;;;;;;20.05;8.02;;;6.70;99.90;;;;;;2083333;28;20464;-60
2021/05/27 03:32:22;;;;;;;15.88;7.43;;;6.60;99.90;;;;;;2085487;28;20025;-59
2021/05/27 03:33:23;;;;;;;14.75;7.40;;;6.60;99.90;;;;;;2086155;28;20032;-60
2021/05/27 03:34:24;;;;;;;15.73;7.38;;;6.60;99.90;;;;;;2088663;28;20384;-59
2021/05/27 03:35:25;;;;;;;15.98;7.93;;;6.50;99.90;;;;;;2088035;28;20044;-60
2021/05/27 03:36:26;;;;;;;15.73;6.35;;;6.50;99.90;;;;;;2086597;28;20091;-59
2021/05/27 03:37:27;;;;;;;21.00;8.02;;;6.60;99.90;;;;;;2080516;28;20734;-59
2021/05/27 03:38:27;;;;;;;15.27;7.32;;;6.60;99.90;;;;;;2085847;28;20130;-59
2021/05/27 03:39:28;;;;;;;17.50;7.57;;;6.60;99.90;;;;;;2086043;28;20029;-59
2021/05/27 03:40:29;;;;;;;16.25;7.47;;;6.60;99.90;;;;;;2081938;28;20507;-60
2021/05/27 03:41:30;;;;;;;19.77;8.02;;;6.50;99.90;;;;;;2082064;28;20026;-59
2021/05/27 03:42:31;;;;;;;16.58;7.78;;;6.40;99.90;;;;;;2088205;28;20025;-59
2021/05/27 03:43:31;;;;;;;14.10;7.30;;;6.40;99.90;;;;;;2085210;28;20037;-59
2021/05/27 03:44:32;;;;;;;17.40;7.13;;;6.40;99.90;;;;;;2088031;28;20020;-59
2021/05/27 03:45:34;;;;;;;16.13;6.78;;;6.30;99.90;;;;;;2082002;28;20104;-59
2021/05/27 03:46:36;;;;;;;14.07;7.65;;;6.40;99.90;;;;;;2082887;28;20105;-60
2021/05/27 03:47:37;;;;;;;19.70;7.47;;;6.40;99.90;;;;;;2088666;28;20035;-59
2021/05/27 03:48:38;;;;;;;13.20;6.65;;;6.40;99.90;;;;;;2084111;28;20032;-59
2021/05/27 03:49:39;;;;;;;18.08;6.93;;;6.40;99.90;;;;;;2081684;28;20112;-60
2021/05/27 03:50:39;;;;;;;15.90;6.25;;;6.40;99.90;;;;;;2086256;28;20013;-59
2021/05/27 03:51:40;;;;;;;13.93;6.88;;;6.40;99.90;;;;;;2083331;28;20030;-59
2021/05/27 03:52:41;;;;;;;14.48;6.60;;;6.40;99.90;;;;;;2081345;28;20047;-59
2021/05/27 03:53:42;;;;;;;16.93;7.37;;;6.40;99.90;;;;;;2089566;28;20455;-60
2021/05/27 03:54:46;;;;;;;22.27;7.38;;;6.40;99.90;;;;;;2089364;28;20268;-59
2021/05/27 03:55:46;;;;;;;15.18;7.10;;;6.40;99.90;;;;;;2089303;28;20021;-59
2021/05/27 03:56:47;;;;;;;12.50;6.55;;;6.40;99.90;;;;;;2089377;28;20055;-59
2021/05/27 03:57:49;;;;;;;12.80;6.45;;;6.40;99.90;;;;;;2089148;28;20094;-59
2021/05/27 04:01:31;;;;;;;14.18;6.63;;;6.40;99.90;;;;;;2081412;28;20045;-60
2021/05/27 04:02:31;;;;;;;18.15;7.22;;;6.30;99.90;;;;;;2089232;28;20025;-59
2021/05/27 04:07:08;;;;;;;12.60;6.85;;;6.30;99.90;;;;;;2087892;28;20045;-59
2021/05/27 04:07:31;;;;;;;12.77;6.65;;;6.30;99.90;;;;;;2088420;28;20029;-59
2021/05/27 04:08:32;;;;;;;16.63;7.13;;;6.20;99.90;;;;;;2086900;28;20053;-60
2021/05/27 04:09:32;;;;;;;18.23;8.10;;;6.30;99.90;;;;;;2089371;28;20025;-60
2021/05/27 04:10:34;;;;;;;15.90;8.50;;;6.20;99.90;;;;;;2089755;28;20020;-60
2021/05/27 04:11:35;;;;;;;15.27;7.93;;;6.20;99.90;;;;;;2089912;28;20031;-59
2021/05/27 04:12:46;;;;;;;16.20;8.00;;;6.20;99.90;;;;;;2089935;28;20025;-59
2021/05/27 04:13:47;;;;;;;13.07;7.60;;;6.20;99.90;;;;;;2089129;28;20443;-60
2021/05/27 04:15:19;;;;;;;18.67;9.55;;;6.20;99.90;;;;;;2089346;28;20021;-60
2021/05/27 04:16:08;;;;;;;17.98;9.40;;;6.20;99.90;;;;;;2089391;28;20025;-59
2021/05/27 04:17:10;;;;;;;17.45;9.10;;;6.20;99.90;;;;;;2089812;28;20017;-60
2021/05/27 04:18:14;;;;;;;26.23;10.38;;;6.20;99.90;;;;;;2083031;28;20493;-59
2021/05/27 04:19:14;;;;;;;18.23;8.98;;;6.20;99.90;;;;;;2092630;28;20035;-59
2021/05/27 04:20:15;;;;;;;23.58;11.07;;;6.30;99.90;;;;;;2089242;28;20064;-60
2021/05/27 04:21:18;;;;;;;25.00;10.48;;;6.30;99.90;;;;;;2087163;28;20079;-60
2021/05/27 04:22:19;;;;;;;24.00;11.13;;;6.20;99.90;;;;;;2081643;28;20030;-59
2021/05/27 04:23:38;;;;;;;19.98;10.07;;;6.20;99.90;;;;;;2087624;28;20431;-60
2021/05/27 04:24:39;;;;;;;22.77;10.00;;;6.20;99.90;;;;;;2083438;28;20558;-59
2021/05/27 04:25:40;;;;;;;23.25;10.40;;;6.30;99.90;;;;;;2089235;28;20025;-59
2021/05/27 04:26:40;;;;;;;21.20;9.20;;;6.30;99.90;;;;;;2082775;28;20108;-59
2021/05/27 04:27:42;;;;;;;20.15;10.07;;;6.30;99.90;;;;;;2080545;28;20045;-60
2021/05/27 04:28:45;;;;;;;20.50;9.30;;;6.30;99.90;;;;;;2081892;28;20031;-59
2021/05/27 04:29:46;;;;;;;21.88;9.52;;;6.30;99.90;;;;;;2085099;28;20554;-60
2021/05/27 04:32:06;;;;;;;15.25;8.48;;;6.40;99.90;;;;;;2081407;28;20101;-60
2021/05/27 04:33:07;;;;;;;18.40;9.02;;;6.40;99.90;;;;;;2084409;28;20503;-60
2021/05/27 04:34:07;;;;;;;22.65;9.30;;;6.40;99.90;;;;;;2089252;28;20200;-60
2021/05/27 04:35:08;;;;;;;23.45;9.55;;;6.40;99.90;;;;;;2087456;28;20024;-60
2021/05/27 04:36:10;;;;;;;19.92;9.57;;;6.40;99.90;;;;;;2088949;28;20023;-60
2021/05/27 04:37:10;;;;;;;23.83;9.50;;;6.40;99.90;;;;;;2087290;28;20427;-60
2021/05/27 04:38:16;;;;;;;19.02;8.80;;;6.40;99.90;;;;;;2084856;28;20029;-60
2021/05/27 04:39:17;;;;;;;17.60;9.07;;;6.40;99.90;;;;;;2089980;28;20540;-60
2021/05/27 04:40:19;;;;;;;17.33;8.63;;;6.40;99.90;;;;;;2088840;28;20025;-60
2021/05/27 04:41:20;;;;;;;18.50;9.43;;;6.40;99.90;;;;;;2089044;28;20025;-60
2021/05/27 04:42:20;;;;;;;19.73;9.60;;;6.40;99.90;;;;;;2089957;28;20060;-60
2021/05/27 04:43:22;;;;;;;22.73;10.52;;;6.40;99.90;;;;;;2089751;28;20437;-60
2021/05/27 04:44:23;;;;;;;20.52;9.20;;;6.40;99.90;;;;;;2087636;28;20031;-60
2021/05/27 04:45:24;;;;;;;19.33;9.23;;;6.40;99.90;;;;;;2088931;28;20020;-60
2021/05/27 04:46:25;;;;;;;23.80;9.82;;;6.40;99.90;;;;;;2082119;28;20032;-60
2021/05/27 04:47:26;;;;;;;17.48;9.18;;;6.50;99.90;;;;;;2089888;28;20016;-60
2021/05/27 04:48:27;;;;;;;21.70;10.27;;;6.50;99.90;;;;;;2089726;28;20464;-60
2021/05/27 04:49:27;;;;;;;18.23;9.98;;;6.60;99.90;;;;;;2087717;28;20022;-60
2021/05/27 04:50:28;;;;;;;18.05;9.48;;;6.50;99.90;;;;;;2088764;28;20017;-60
2021/05/27 04:51:29;;;;;;;16.25;9.45;;;6.60;99.90;;;;;;2089692;28;20055;-60
2021/05/27 04:52:29;;;;;;;18.08;10.07;;;6.60;99.90;;;;;;2089159;28;20021;-60
2021/05/27 04:53:31;;;;;;;18.25;9.80;;;6.60;99.90;;;;;;2089151;28;20017;-60
2021/05/27 04:54:32;;;;;;;21.85;9.07;;;6.60;99.90;;;;;;2089998;28;20017;-60
2021/05/27 04:55:33;;;;;;;18.23;9.57;;;6.60;99.90;;;;;;2082795;28;20088;-59
2021/05/27 04:56:34;;;;;;;28.65;10.20;;;6.60;99.90;;;;;;2081452;28;20026;-59
2021/05/27 04:57:35;;;;;;;18.48;9.52;;;6.60;99.90;;;;;;2081432;28;20082;-59
2021/05/27 04:58:35;;;;;;;15.30;8.38;;;6.70;99.90;;;;;;2084625;28;20017;-60
2021/05/27 04:59:36;;;;;;;16.52;9.25;;;6.70;99.90;;;;;;2089073;28;20676;-59
2021/05/27 05:00:37;;;;;;;18.25;10.07;;;6.80;99.90;;;;;;2088968;28;20018;-59
2021/05/27 05:01:38;;;;;;;19.13;10.35;;;7.00;99.90;;;;;;2080281;28;20436;-60
2021/05/27 05:02:39;;;;;;;17.92;10.10;;;7.30;99.90;;;;;;2089443;28;20045;-59
2021/05/27 05:03:39;;;;;;;21.05;10.98;;;7.70;99.90;;;;;;2082936;28;20412;-60
2021/05/27 05:04:40;;;;;;;18.75;9.98;;;8.20;99.90;;;;;;2081345;28;20025;-60
2021/05/27 05:05:41;;;;;;;15.40;9.10;;;8.80;99.90;;;;;;2081358;28;20035;-61
2021/05/27 05:06:42;;;;;;;15.13;8.90;;;9.40;99.90;;;;;;2081348;28;20030;-59
2021/05/27 05:07:43;;;;;;;21.67;8.60;;;9.80;99.90;;;;;;2089759;28;20035;-60
2021/05/27 05:08:44;;;;;;;14.30;8.20;;;10.20;99.90;;;;;;2088989;28;20044;-60
2021/05/27 05:09:45;;;;;;;18.92;7.97;;;10.70;99.90;;;;;;2088895;28;20088;-60
2021/05/27 05:10:46;;;;;;;15.23;7.32;;;11.10;99.90;;;;;;2088877;28;20508;-60
2021/05/27 05:11:47;;;;;;;19.58;7.75;;;11.50;99.90;;;;;;2083708;28;20056;-60
2021/05/27 05:12:51;;;;;;;46.28;10.02;;;12.00;99.90;;;;;;2084899;28;20036;-60
2021/05/27 05:13:52;;;;;;;83.18;12.88;;;12.30;99.90;;;;;;2081308;28;20021;-60
2021/05/27 05:14:53;;;;;;;21.33;9.63;;;12.70;99.90;;;;;;2080555;28;20028;-60
2021/05/27 05:15:53;;;;;;;60.28;11.43;;;13.00;99.90;;;;;;2086337;28;20144;-60
2021/05/27 05:16:54;;;;;;;65.43;10.95;;;13.40;99.90;;;;;;2089409;28;20596;-60
2021/05/27 05:17:59;;;;;;;34.08;9.30;;;13.70;99.90;;;;;;2088720;28;20599;-60
2021/05/27 05:18:59;;;;;;;19.50;9.23;;;14.00;99.90;;;;;;2093881;28;20028;-60
2021/05/27 05:20:00;;;;;;;26.13;8.38;;;14.30;99.90;;;;;;2089362;28;20027;-60
2021/05/27 05:21:01;;;;;;;20.67;8.82;;;14.70;99.90;;;;;;2087420;28;20028;-60
2021/05/27 05:22:01;;;;;;;21.52;10.57;;;15.00;99.90;;;;;;2083391;28;20024;-60
2021/05/27 05:23:03;;;;;;;21.70;10.82;;;15.40;99.90;;;;;;2085644;28;20028;-60
2021/05/27 05:24:04;;;;;;;24.95;11.20;;;15.70;99.90;;;;;;2089604;28;20021;-60
2021/05/27 05:25:06;;;;;;;26.65;10.75;;;16.00;99.90;;;;;;2088761;28;20078;-60
2021/05/27 05:26:07;;;;;;;21.20;9.55;;;16.30;99.90;;;;;;2088822;28;20025;-60
2021/05/27 05:27:07;;;;;;;19.55;10.38;;;16.50;99.90;;;;;;2084756;28;20032;-60
2021/05/27 05:28:11;;;;;;;19.75;9.77;;;16.70;99.90;;;;;;2084718;28;20044;-61
2021/05/27 05:29:12;;;;;;;17.83;8.25;;;16.90;99.90;;;;;;2085232;28;20757;-60
2021/05/27 05:30:14;;;;;;;18.50;7.85;;;17.20;99.90;;;;;;2088740;28;20032;-60